Time;durP1;ratioP1;P1;durP2;ratioP2;P2;SDS_P1;SDS_P2;PMS_P1;PMS_P2;Temp;Humidity;BMP_temperature;BMP_pressure;BME280_temperature;BME280_humidity;BME280_pressure;Samples;Min_cycle;Max_cycle;Signal;HPM_P1;HPM_P2
2022/09/19 00:02:24;;;;;;;0.57;0.37;;;13.80;99.90;;;;;;5028066;28;20212;-61
2022/09/19 00:04:51;;;;;;;0.20;0.20;;;13.80;99.90;;;;;;5033741;28;20209;-61
2022/09/19 00:07:18;;;;;;;0.50;0.50;;;13.80;99.90;;;;;;5034039;28;20236;-61
2022/09/19 00:09:44;;;;;;;0.40;0.40;;;13.70;99.90;;;;;;5028927;28;20221;-61
2022/09/19 00:12:13;;;;;;;0.23;0.23;;;13.70;99.90;;;;;;5034415;28;20204;-62
2022/09/19 00:14:39;;;;;;;0.30;0.30;;;13.70;99.90;;;;;;5031818;28;20697;-62
2022/09/19 00:17:08;;;;;;;0.20;0.20;;;13.80;99.90;;;;;;5029466;28;20201;-62
2022/09/19 00:19:36;;;;;;;0.37;0.37;;;13.70;99.90;;;;;;5034020;28;20227;-62
2022/09/19 00:22:04;;;;;;;0.57;0.57;;;13.70;99.90;;;;;;5032504;28;20611;-61
2022/09/19 00:24:45;;;;;;;1.07;0.50;;;13.70;99.90;;;;;;5032002;28;20230;-61
2022/09/19 00:27:16;;;;;;;0.40;0.40;;;13.60;99.90;;;;;;5033801;28;20284;-61
2022/09/19 00:29:43;;;;;;;0.40;0.40;;;13.60;99.90;;;;;;5029938;28;20239;-61
2022/09/19 00:32:12;;;;;;;0.60;0.60;;;13.60;99.90;;;;;;5034647;28;20205;-61
2022/09/19 00:34:39;;;;;;;0.43;0.43;;;13.50;99.90;;;;;;5032267;28;20207;-62
2022/09/19 00:37:06;;;;;;;0.30;0.30;;;13.40;99.90;;;;;;5033850;28;20212;-63
2022/09/19 00:39:33;;;;;;;0.40;0.40;;;13.30;99.90;;;;;;5034831;28;20223;-61
2022/09/19 00:42:00;;;;;;;0.60;0.60;;;13.10;99.90;;;;;;5034461;28;20215;-61
2022/09/19 00:44:55;;;;;;;0.37;0.37;;;13.10;99.90;;;;;;5034037;28;20215;-61
2022/09/19 00:47:26;;;;;;;0.40;0.40;;;13.00;99.90;;;;;;5038585;28;20289;-61
2022/09/19 00:49:57;;;;;;;0.33;0.23;;;13.00;99.90;;;;;;5036438;28;20228;-61
2022/09/19 00:52:31;;;;;;;0.30;0.30;;;13.00;99.90;;;;;;5048027;28;20571;-62
2022/09/19 00:54:58;;;;;;;0.67;0.67;;;13.00;99.90;;;;;;5042585;28;20598;-62
2022/09/19 00:57:36;;;;;;;0.30;0.30;;;12.90;99.90;;;;;;5047790;28;20200;-60
2022/09/19 01:00:06;;;;;;;0.33;0.33;;;12.90;99.90;;;;;;5043177;28;20246;-61
2022/09/19 01:02:33;;;;;;;0.40;0.40;;;12.90;99.90;;;;;;5043226;28;20200;-61
2022/09/19 01:05:02;;;;;;;0.20;0.20;;;12.90;99.90;;;;;;5045965;28;20622;-61
2022/09/19 01:07:43;;;;;;;0.60;0.60;;;12.90;99.90;;;;;;5036097;28;20207;-61
2022/09/19 01:10:26;;;;;;;0.40;0.37;;;12.90;99.90;;;;;;5045064;28;20232;-61
2022/09/19 01:13:02;;;;;;;0.40;0.40;;;12.90;99.90;;;;;;5048089;28;20208;-61
2022/09/19 01:15:39;;;;;;;0.40;0.40;;;12.90;99.90;;;;;;5041416;28;20193;-61
2022/09/19 01:18:08;;;;;;;0.33;0.33;;;12.80;99.90;;;;;;5041773;28;20212;-62
2022/09/19 01:24:19;;;;;;;0.40;0.40;;;12.80;99.90;;;;;;5039340;28;20202;-61
2022/09/19 01:27:05;;;;;;;0.83;0.50;;;12.70;99.90;;;;;;5042087;28;20212;-60
2022/09/19 01:29:38;;;;;;;0.37;0.37;;;12.60;99.90;;;;;;5039767;28;20251;-61
2022/09/19 01:32:11;;;;;;;0.37;0.37;;;12.50;99.90;;;;;;5049622;28;20210;-62
2022/09/19 01:34:43;;;;;;;0.40;0.40;;;12.40;99.90;;;;;;5046074;28;20196;-60
2022/09/19 01:37:16;;;;;;;0.30;0.30;;;12.30;99.90;;;;;;5043326;28;20679;-61
2022/09/19 01:39:46;;;;;;;0.50;0.50;;;12.20;99.90;;;;;;5046356;28;20754;-60
2022/09/19 01:42:13;;;;;;;0.40;0.40;;;12.20;99.90;;;;;;5044097;28;20208;-61
2022/09/19 01:44:42;;;;;;;0.30;0.30;;;12.10;99.90;;;;;;5048595;28;20195;-61
2022/09/19 01:47:17;;;;;;;0.50;0.50;;;12.00;99.90;;;;;;5044226;28;20216;-61
2022/09/19 01:49:52;;;;;;;0.40;0.37;;;12.00;99.90;;;;;;5049682;28;20223;-62
2022/09/19 01:52:30;;;;;;;0.30;0.30;;;12.00;99.90;;;;;;5046382;28;20254;-63
2022/09/19 01:55:07;;;;;;;0.43;0.43;;;12.00;99.90;;;;;;5042026;28;20276;-62
2022/09/19 01:57:41;;;;;;;0.40;0.40;;;12.00;99.90;;;;;;5047416;28;20547;-63
2022/09/19 02:00:13;;;;;;;0.40;0.40;;;12.00;99.90;;;;;;5042880;28;20245;-64
2022/09/19 02:02:48;;;;;;;0.30;0.30;;;12.00;99.90;;;;;;5047978;28;20210;-62
2022/09/19 02:05:22;;;;;;;0.30;0.30;;;12.00;99.90;;;;;;5044737;28;20199;-63
2022/09/19 02:07:59;;;;;;;0.47;0.40;;;12.00;99.90;;;;;;5055340;22;20224;-67
2022/09/19 02:10:29;;;;;;;0.50;0.50;;;11.90;99.90;;;;;;5038966;28;20215;-67
2022/09/19 02:13:00;;;;;;;0.40;0.40;;;11.90;99.90;;;;;;5045930;28;20200;-66
2022/09/19 02:15:31;;;;;;;0.43;0.33;;;11.90;99.90;;;;;;5038956;28;20293;-67
2022/09/19 02:18:04;;;;;;;0.50;0.50;;;11.90;99.90;;;;;;5049830;28;20230;-69
2022/09/19 02:20:33;;;;;;;0.30;0.30;;;12.00;99.90;;;;;;5049555;28;20199;-67
2022/09/19 02:23:05;;;;;;;0.30;0.30;;;12.00;99.90;;;;;;5045924;28;20205;-66
2022/09/19 02:25:35;;;;;;;0.50;0.50;;;12.10;99.90;;;;;;5038633;28;20204;-66
2022/09/19 02:28:08;;;;;;;0.50;0.50;;;12.00;99.90;;;;;;5048117;28;20716;-69
2022/09/19 02:30:36;;;;;;;0.37;0.37;;;12.00;99.90;;;;;;5039548;28;20212;-67
2022/09/19 02:33:06;;;;;;;0.37;0.37;;;11.90;99.90;;;;;;5049694;28;20204;-69
2022/09/19 02:35:43;;;;;;;0.33;0.33;;;11.80;99.90;;;;;;5043298;28;20258;-68
2022/09/19 02:38:17;;;;;;;0.30;0.30;;;11.80;99.90;;;;;;5049011;28;20220;-68
2022/09/19 02:40:52;;;;;;;0.40;0.40;;;11.80;99.90;;;;;;5044737;28;20220;-68
2022/09/19 02:43:29;;;;;;;0.57;0.57;;;11.80;99.90;;;;;;5052648;28;20206;-67
2022/09/19 02:46:05;;;;;;;0.40;0.40;;;11.90;99.90;;;;;;5041978;28;20267;-66
2022/09/19 02:48:40;;;;;;;0.40;0.40;;;11.80;99.90;;;;;;5052930;28;20223;-67
2022/09/19 02:51:11;;;;;;;1.23;0.50;;;11.70;99.90;;;;;;5044442;28;20236;-68
2022/09/19 02:53:43;;;;;;;0.37;0.37;;;11.60;99.90;;;;;;5045564;28;20227;-69
2022/09/19 02:56:13;;;;;;;0.40;0.40;;;11.50;99.90;;;;;;5046643;28;20662;-69
2022/09/19 02:58:44;;;;;;;0.43;0.43;;;11.50;99.90;;;;;;5046695;28;20226;-67
2022/09/19 03:01:18;;;;;;;0.30;0.30;;;11.50;99.90;;;;;;5049434;28;20196;-66
2022/09/19 03:06:37;;;;;;;0.50;0.50;;;11.40;99.90;;;;;;5037653;28;20206;-68
2022/09/19 03:09:06;;;;;;;0.40;0.40;;;11.40;99.90;;;;;;5048084;28;20200;-67
2022/09/19 03:11:35;;;;;;;0.33;0.33;;;11.40;99.90;;;;;;5044649;28;20234;-67
2022/09/19 03:14:02;;;;;;;0.30;0.30;;;11.30;99.90;;;;;;5048376;28;20212;-68
2022/09/19 03:16:35;;;;;;;0.40;0.40;;;11.20;99.90;;;;;;5044227;28;20612;-67
2022/09/19 03:19:04;;;;;;;0.50;0.50;;;11.10;99.90;;;;;;5048290;28;20204;-68
2022/09/19 03:21:32;;;;;;;0.40;0.40;;;11.10;99.90;;;;;;5048237;28;20197;-67
2022/09/19 03:23:59;;;;;;;0.30;0.30;;;11.10;99.90;;;;;;5051113;28;20200;-68
2022/09/19 03:26:31;;;;;;;1.07;0.53;;;11.10;99.90;;;;;;5050974;28;20200;-65
2022/09/19 03:28:58;;;;;;;0.40;0.40;;;11.10;99.90;;;;;;5052286;28;21018;-68
2022/09/19 03:31:26;;;;;;;0.50;0.50;;;11.10;99.90;;;;;;5051733;28;20216;-69
2022/09/19 03:33:55;;;;;;;0.37;0.37;;;11.10;99.90;;;;;;5044419;28;20212;-67
2022/09/19 03:36:23;;;;;;;0.50;0.50;;;11.10;99.90;;;;;;5053847;28;20226;-67
2022/09/19 03:38:50;;;;;;;0.40;0.40;;;11.10;99.90;;;;;;5040995;28;20197;-67
2022/09/19 03:41:19;;;;;;;0.50;0.50;;;11.10;99.90;;;;;;5053422;28;20261;-67
2022/09/19 03:43:47;;;;;;;0.50;0.50;;;11.20;99.90;;;;;;5046278;28;20873;-66
2022/09/19 03:46:16;;;;;;;0.30;0.30;;;11.20;99.90;;;;;;5054067;28;20211;-67
2022/09/19 03:48:46;;;;;;;0.50;0.50;;;11.10;99.90;;;;;;5050779;28;20231;-67
2022/09/19 03:51:15;;;;;;;0.30;0.30;;;11.10;99.90;;;;;;5047659;28;20232;-68
2022/09/19 03:53:43;;;;;;;0.50;0.50;;;11.00;99.90;;;;;;5052446;28;20200;-68
2022/09/19 03:56:10;;;;;;;0.40;0.40;;;11.00;99.90;;;;;;5047161;28;20200;-68
2022/09/19 03:58:37;;;;;;;0.50;0.50;;;11.00;99.90;;;;;;5052806;28;20224;-68
2022/09/19 04:01:06;;;;;;;0.50;0.50;;;11.10;99.90;;;;;;5046880;28;20200;-69
2022/09/19 04:03:33;;;;;;;0.40;0.40;;;11.10;99.90;;;;;;5055022;28;20204;-67
2022/09/19 04:06:00;;;;;;;0.33;0.33;;;11.10;99.90;;;;;;5044331;28;20215;-68
2022/09/19 04:08:29;;;;;;;0.40;0.40;;;11.10;99.90;;;;;;5042857;28;20229;-67
2022/09/19 04:10:56;;;;;;;0.37;0.37;;;11.10;99.90;;;;;;5046368;28;20312;-67
2022/09/19 04:13:23;;;;;;;0.60;0.60;;;11.00;99.90;;;;;;5047813;28;20200;-69
2022/09/19 04:15:50;;;;;;;0.37;0.37;;;11.00;99.90;;;;;;5051163;28;20216;-68
2022/09/19 04:18:18;;;;;;;0.20;0.20;;;10.90;99.90;;;;;;5052709;28;20223;-67
2022/09/19 04:20:46;;;;;;;1.17;0.57;;;10.90;99.90;;;;;;5057093;28;20192;-69
2022/09/19 04:23:16;;;;;;;0.47;0.47;;;10.90;99.90;;;;;;5050598;28;20673;-67
2022/09/19 04:25:46;;;;;;;0.40;0.40;;;10.80;99.90;;;;;;5052292;28;20211;-68
2022/09/19 04:28:16;;;;;;;0.50;0.50;;;10.80;99.90;;;;;;5048203;28;20737;-69
2022/09/19 04:30:44;;;;;;;0.80;0.70;;;10.80;99.90;;;;;;5053676;28;20211;-68
2022/09/19 04:33:12;;;;;;;0.40;0.40;;;10.70;99.90;;;;;;5051890;28;20262;-66
2022/09/19 04:35:43;;;;;;;0.50;0.50;;;10.70;99.90;;;;;;5049255;28;20196;-68
2022/09/19 04:38:12;;;;;;;0.53;0.53;;;10.60;99.90;;;;;;5049093;28;20277;-67
2022/09/19 04:40:39;;;;;;;0.60;0.60;;;10.50;99.90;;;;;;5047664;28;20196;-68
2022/09/19 04:43:08;;;;;;;0.50;0.50;;;10.50;99.90;;;;;;5050554;28;20218;-66
2022/09/19 04:45:36;;;;;;;0.73;0.73;;;10.50;99.90;;;;;;5047771;28;20204;-68
2022/09/19 04:48:04;;;;;;;0.43;0.43;;;10.50;99.90;;;;;;5050914;28;20228;-68
2022/09/19 04:50:31;;;;;;;1.03;0.80;;;10.50;99.90;;;;;;5044124;28;20221;-67
2022/09/19 04:52:58;;;;;;;0.53;0.50;;;10.60;99.90;;;;;;5048694;28;20814;-68
2022/09/19 04:55:27;;;;;;;0.70;0.70;;;10.70;99.90;;;;;;5046704;28;20212;-67
2022/09/19 04:57:54;;;;;;;0.67;0.67;;;10.80;99.90;;;;;;5048890;28;20315;-68
2022/09/19 05:03:19;;;;;;;0.60;0.60;;;10.80;99.90;;;;;;5106049;27;20556;-68
2022/09/19 05:05:50;;;;;;;0.57;0.57;;;10.90;99.90;;;;;;5098514;28;20190;-68
2022/09/19 05:08:19;;;;;;;0.40;0.40;;;11.10;99.90;;;;;;5100591;28;20234;-68
2022/09/19 05:10:46;;;;;;;0.50;0.50;;;11.00;99.90;;;;;;5100696;28;20286;-68
2022/09/19 05:13:15;;;;;;;0.30;0.30;;;11.00;99.90;;;;;;5100893;28;20205;-67
2022/09/19 05:15:44;;;;;;;0.60;0.60;;;11.00;99.90;;;;;;5100971;28;20206;-68
2022/09/19 05:18:11;;;;;;;1.17;0.60;;;10.90;99.90;;;;;;5099694;28;20569;-67
2022/09/19 05:20:39;;;;;;;0.40;0.40;;;10.90;99.90;;;;;;5100735;28;20226;-69
2022/09/19 05:23:06;;;;;;;0.70;0.43;;;11.10;99.90;;;;;;5097546;28;20242;-67
2022/09/19 05:25:38;;;;;;;0.53;0.53;;;11.10;99.90;;;;;;5106256;28;20225;-68
2022/09/19 05:28:07;;;;;;;1.27;0.50;;;11.10;99.90;;;;;;5100367;28;20226;-66
2022/09/19 05:30:36;;;;;;;0.50;0.50;;;11.10;99.90;;;;;;5106719;28;20206;-67
2022/09/19 05:33:03;;;;;;;0.60;0.60;;;11.20;99.90;;;;;;5100117;28;20285;-66
2022/09/19 05:35:31;;;;;;;0.60;0.60;;;11.20;99.90;;;;;;5098508;28;20204;-67
2022/09/19 05:37:59;;;;;;;1.07;1.00;;;11.20;99.90;;;;;;5096181;28;20306;-68
2022/09/19 05:40:27;;;;;;;0.60;0.60;;;11.20;99.90;;;;;;5095704;28;20205;-66
2022/09/19 05:42:55;;;;;;;0.53;0.53;;;11.30;99.90;;;;;;5100107;28;20218;-66
2022/09/19 05:45:22;;;;;;;0.60;0.60;;;11.30;99.90;;;;;;5080353;28;20207;-66
2022/09/19 05:47:50;;;;;;;0.63;0.63;;;11.40;99.90;;;;;;5078983;28;20227;-67
2022/09/19 05:50:17;;;;;;;0.40;0.40;;;11.50;99.90;;;;;;5088590;28;20687;-67
2022/09/19 05:55:30;;;;;;;0.57;0.57;;;11.40;99.90;;;;;;5089687;28;20206;-67
2022/09/19 05:57:58;;;;;;;0.60;0.60;;;11.40;99.90;;;;;;5103460;28;20599;-65
2022/09/19 06:00:27;;;;;;;0.70;0.70;;;11.40;99.90;;;;;;5089777;28;20273;-66
2022/09/19 06:02:55;;;;;;;0.80;0.80;;;11.40;99.90;;;;;;5077096;28;20227;-67
2022/09/19 06:05:23;;;;;;;0.60;0.60;;;11.50;99.90;;;;;;5079790;28;20202;-66
2022/09/19 06:07:51;;;;;;;0.60;0.60;;;11.50;99.90;;;;;;5078850;28;20715;-67
2022/09/19 06:10:18;;;;;;;0.43;0.43;;;11.60;99.90;;;;;;5079602;28;20210;-67
2022/09/19 06:12:46;;;;;;;0.80;0.80;;;11.60;99.90;;;;;;5076562;28;20203;-67
2022/09/19 06:15:13;;;;;;;0.70;0.70;;;11.60;99.90;;;;;;5073745;28;20210;-66
2022/09/19 06:17:40;;;;;;;0.60;0.60;;;11.60;99.90;;;;;;5079639;28;20314;-67
2022/09/19 06:20:08;;;;;;;0.87;0.87;;;11.60;99.90;;;;;;5068216;28;20267;-68
2022/09/19 06:22:35;;;;;;;0.57;0.57;;;11.60;99.90;;;;;;5083176;28;20295;-66
2022/09/19 06:25:03;;;;;;;0.50;0.50;;;11.60;99.90;;;;;;5086822;28;20199;-69
2022/09/19 06:27:30;;;;;;;0.70;0.70;;;11.70;99.90;;;;;;5085252;28;20230;-66
2022/09/19 06:29:58;;;;;;;0.52;0.52;;;11.70;99.90;;;;;;5080320;28;20307;-67
2022/09/19 06:32:25;;;;;;;0.53;0.53;;;11.80;99.90;;;;;;5082250;28;20249;-67
2022/09/19 06:34:52;;;;;;;0.80;0.80;;;11.80;99.90;;;;;;5058954;28;20229;-66
2022/09/19 06:37:19;;;;;;;0.70;0.70;;;12.00;99.90;;;;;;5078791;28;20769;-68
2022/09/19 06:39:45;;;;;;;0.70;0.70;;;12.10;99.90;;;;;;5080361;28;20290;-67
2022/09/19 06:42:12;;;;;;;0.63;0.63;;;12.10;99.90;;;;;;5075206;28;20215;-67
2022/09/19 06:44:39;;;;;;;0.50;0.50;;;12.20;99.90;;;;;;5066651;28;20266;-68
2022/09/19 06:47:08;;;;;;;0.60;0.60;;;12.30;99.90;;;;;;5085507;28;20233;-66
2022/09/19 06:49:35;;;;;;;1.23;0.90;;;12.40;99.90;;;;;;5083992;28;20195;-67
2022/09/19 06:52:02;;;;;;;0.83;0.80;;;12.50;99.90;;;;;;5069357;28;20666;-66
2022/09/19 06:54:29;;;;;;;0.60;0.60;;;12.50;99.90;;;;;;5062410;28;20234;-66
2022/09/19 06:56:56;;;;;;;0.67;0.67;;;12.60;99.90;;;;;;5061585;28;20224;-66
2022/09/19 06:59:23;;;;;;;0.77;0.77;;;12.60;99.90;;;;;;5066036;28;20254;-68
2022/09/19 07:01:50;;;;;;;0.60;0.60;;;12.70;99.90;;;;;;5058966;28;20223;-64
2022/09/19 07:04:19;;;;;;;0.90;0.80;;;12.80;99.90;;;;;;5064905;28;20206;-65
2022/09/19 07:06:46;;;;;;;0.47;0.47;;;12.80;99.90;;;;;;5060606;28;20219;-67
2022/09/19 07:09:13;;;;;;;0.80;0.80;;;12.90;99.90;;;;;;5056857;28;20215;-66
2022/09/19 07:11:40;;;;;;;0.50;0.50;;;13.00;99.90;;;;;;5070306;28;20212;-68
2022/09/19 07:14:06;;;;;;;0.40;0.40;;;13.00;99.90;;;;;;5068418;28;20687;-67
2022/09/19 07:16:33;;;;;;;1.07;0.90;;;13.10;99.90;;;;;;5075720;28;20654;-68
2022/09/19 07:19:00;;;;;;;0.70;0.70;;;13.10;99.90;;;;;;5069967;28;20287;-67
2022/09/19 07:21:28;;;;;;;0.60;0.60;;;13.10;99.90;;;;;;5070784;28;20199;-67
2022/09/19 07:23:55;;;;;;;0.60;0.60;;;13.20;99.90;;;;;;5059237;28;20199;-65
2022/09/19 07:26:22;;;;;;;0.80;0.80;;;13.20;99.90;;;;;;5065987;28;20692;-67
2022/09/19 07:28:49;;;;;;;0.67;0.60;;;13.20;99.90;;;;;;5074245;28;20223;-65
2022/09/19 07:31:16;;;;;;;0.60;0.60;;;13.30;99.90;;;;;;5059970;28;20604;-66
2022/09/19 07:33:43;;;;;;;0.63;0.63;;;13.20;99.90;;;;;;5053751;28;20210;-66
2022/09/19 07:36:11;;;;;;;0.80;0.80;;;13.20;99.90;;;;;;5064986;28;20761;-67
2022/09/19 07:38:39;;;;;;;0.70;0.70;;;13.20;99.90;;;;;;5062185;28;20215;-67
2022/09/19 07:41:06;;;;;;;0.70;0.70;;;13.20;99.90;;;;;;5064417;28;20238;-64
2022/09/19 07:43:33;;;;;;;0.67;0.67;;;13.20;99.90;;;;;;5066008;28;20227;-64
2022/09/19 07:46:00;;;;;;;0.60;0.60;;;13.20;99.90;;;;;;5065698;28;20287;-67
2022/09/19 07:48:27;;;;;;;1.90;0.90;;;13.30;99.90;;;;;;5066065;28;20222;-65
2022/09/19 07:50:54;;;;;;;0.70;0.70;;;13.30;99.90;;;;;;5060147;28;20204;-67
2022/09/19 07:53:22;;;;;;;0.77;0.77;;;13.30;99.90;;;;;;5057378;28;20198;-65
2022/09/19 07:55:51;;;;;;;0.67;0.67;;;13.30;99.90;;;;;;5070742;28;20572;-65
2022/09/19 07:58:19;;;;;;;1.37;1.20;;;13.30;99.90;;;;;;5076368;28;20636;-67
2022/09/19 08:00:46;;;;;;;2.10;1.90;;;13.30;99.90;;;;;;5072066;28;20212;-67
2022/09/19 08:03:15;;;;;;;2.00;1.90;;;13.30;99.90;;;;;;5056570;28;20215;-67
2022/09/19 08:05:43;;;;;;;1.30;1.20;;;13.30;99.90;;;;;;5072094;28;20543;-64
2022/09/19 08:08:12;;;;;;;1.03;0.90;;;13.20;99.90;;;;;;5070052;28;20253;-66
2022/09/19 08:10:39;;;;;;;0.90;0.90;;;13.10;99.90;;;;;;5066033;28;20203;-67
2022/09/19 08:13:09;;;;;;;1.17;1.07;;;13.10;99.90;;;;;;5064848;28;20200;-66
2022/09/19 08:15:38;;;;;;;1.40;1.00;;;13.10;99.90;;;;;;5077456;28;20563;-65
2022/09/19 08:18:07;;;;;;;0.90;0.90;;;13.10;99.90;;;;;;5073053;28;20228;-65
2022/09/19 08:20:35;;;;;;;0.60;0.60;;;13.30;99.90;;;;;;5076971;28;20279;-66
2022/09/19 08:23:04;;;;;;;0.87;0.87;;;13.30;99.90;;;;;;5083847;28;20255;-66
2022/09/19 08:25:34;;;;;;;0.80;0.80;;;13.50;99.90;;;;;;5093146;28;20214;-66
2022/09/19 08:28:03;;;;;;;0.70;0.70;;;13.60;99.90;;;;;;5090332;28;20226;-66
2022/09/19 08:30:32;;;;;;;0.80;0.80;;;13.70;99.90;;;;;;5090161;28;20205;-66
2022/09/19 08:33:01;;;;;;;0.70;0.70;;;13.90;99.90;;;;;;5091070;28;20568;-66
2022/09/19 08:35:29;;;;;;;1.00;1.00;;;14.00;99.90;;;;;;5086584;28;20641;-65
2022/09/19 08:37:58;;;;;;;0.93;0.93;;;14.00;99.90;;;;;;5086730;28;20325;-66
2022/09/19 08:40:27;;;;;;;0.80;0.80;;;14.00;99.90;;;;;;5079177;28;20201;-67
2022/09/19 08:43:08;;;;;;;0.80;0.80;;;13.90;99.90;;;;;;5081411;28;20218;-66
2022/09/19 08:45:55;;;;;;;0.80;0.80;;;13.90;99.90;;;;;;5066836;28;20285;-66
2022/09/19 08:48:25;;;;;;;1.00;1.00;;;14.10;99.90;;;;;;5069190;28;20312;-65
2022/09/19 08:50:58;;;;;;;0.87;0.87;;;14.10;99.90;;;;;;5076944;28;20199;-65
2022/09/19 08:53:32;;;;;;;1.60;0.90;;;14.20;99.90;;;;;;5075089;28;20195;-65
2022/09/19 08:56:00;;;;;;;1.30;1.00;;;14.30;99.90;;;;;;5073526;28;20222;-65
2022/09/19 08:58:30;;;;;;;1.00;1.00;;;14.30;99.90;;;;;;5079558;28;20306;-65
2022/09/19 09:01:00;;;;;;;0.80;0.80;;;14.30;99.90;;;;;;5071643;28;20200;-66
2022/09/19 09:03:38;;;;;;;1.00;1.00;;;14.30;99.90;;;;;;5088028;28;20364;-66
2022/09/19 09:06:19;;;;;;;1.03;0.90;;;14.40;99.90;;;;;;5073668;28;20689;-65
2022/09/19 09:08:55;;;;;;;1.03;1.03;;;14.60;99.90;;;;;;5077514;28;20215;-65
2022/09/19 09:11:30;;;;;;;0.93;0.93;;;14.80;99.90;;;;;;5064541;28;20208;-66
2022/09/19 09:14:05;;;;;;;0.90;0.90;;;14.80;99.90;;;;;;5080878;28;20249;-65
2022/09/19 09:16:52;;;;;;;1.13;0.97;;;14.90;99.90;;;;;;5083709;28;20251;-65
2022/09/19 09:19:33;;;;;;;0.90;0.90;;;15.00;99.90;;;;;;5073474;28;20191;-65
2022/09/19 09:22:08;;;;;;;0.83;0.83;;;15.00;99.90;;;;;;5082973;28;20576;-65
2022/09/19 09:24:39;;;;;;;1.00;1.00;;;15.10;99.90;;;;;;5073505;28;20191;-65
2022/09/19 09:27:12;;;;;;;0.90;0.90;;;15.30;99.90;;;;;;5074608;28;20223;-66
2022/09/19 09:29:45;;;;;;;0.83;0.80;;;15.50;99.90;;;;;;5057853;28;20195;-65
2022/09/19 09:32:20;;;;;;;0.93;0.93;;;15.80;99.90;;;;;;5062552;28;20689;-66
2022/09/19 09:34:53;;;;;;;1.17;1.07;;;16.20;99.90;;;;;;5051588;28;20231;-65
2022/09/19 09:37:23;;;;;;;1.10;1.00;;;16.30;99.90;;;;;;5065328;28;20254;-65
2022/09/19 09:40:00;;;;;;;0.90;0.90;;;16.00;99.90;;;;;;5062367;28;20210;-66
2022/09/19 09:42:33;;;;;;;1.27;1.17;;;15.80;99.90;;;;;;5069183;28;20227;-65
2022/09/19 09:45:12;;;;;;;1.03;0.83;;;15.80;99.90;;;;;;5074212;28;20219;-65
2022/09/19 09:47:45;;;;;;;1.40;1.10;;;15.90;99.90;;;;;;5063736;28;20219;-65
2022/09/19 09:50:23;;;;;;;1.57;0.93;;;15.90;99.90;;;;;;5087334;28;20204;-65
2022/09/19 09:53:01;;;;;;;0.90;0.90;;;15.90;99.90;;;;;;5066908;28;20235;-65
2022/09/19 09:58:29;;;;;;;0.90;0.90;;;15.60;99.90;;;;;;5067655;28;20229;-63
2022/09/19 10:04:10;;;;;;;1.10;1.00;;;15.10;99.90;;;;;;5068932;28;20210;-65
2022/09/19 10:06:43;;;;;;;0.93;0.93;;;15.30;99.90;;;;;;5079468;28;20203;-64
2022/09/19 10:09:15;;;;;;;0.80;0.80;;;15.40;99.90;;;;;;5073620;28;20212;-65
2022/09/19 10:11:46;;;;;;;1.30;0.97;;;15.40;99.90;;;;;;5079655;28;20396;-65
2022/09/19 10:14:19;;;;;;;1.13;1.03;;;15.50;99.90;;;;;;5074476;28;20697;-65
2022/09/19 10:16:48;;;;;;;0.80;0.80;;;15.80;99.90;;;;;;5072211;28;20234;-65
2022/09/19 10:19:25;;;;;;;3.40;1.40;;;15.90;99.90;;;;;;5084278;28;20203;-65
2022/09/19 10:21:52;;;;;;;1.37;1.27;;;15.90;99.90;;;;;;5070822;28;20234;-65
2022/09/19 10:24:47;;;;;;;1.23;1.00;;;16.30;99.90;;;;;;5090522;28;20226;-65
2022/09/19 10:27:16;;;;;;;1.20;1.10;;;16.30;99.90;;;;;;5077306;28;20228;-64
2022/09/19 10:29:51;;;;;;;1.00;1.00;;;16.40;99.90;;;;;;5086432;28;20211;-65
2022/09/19 10:32:21;;;;;;;1.17;1.00;;;16.30;99.90;;;;;;5082799;28;20569;-66
2022/09/19 10:34:50;;;;;;;1.20;1.10;;;16.50;99.90;;;;;;5077215;28;20375;-65
2022/09/19 10:37:20;;;;;;;1.43;1.10;;;16.70;99.90;;;;;;5084522;28;20245;-66
2022/09/19 10:39:48;;;;;;;0.90;0.90;;;16.80;99.90;;;;;;5076701;28;20214;-66
2022/09/19 10:42:31;;;;;;;0.90;0.90;;;16.60;99.90;;;;;;5076417;28;20211;-67
2022/09/19 10:44:59;;;;;;;0.77;0.77;;;16.60;99.90;;;;;;5079057;28;20277;-66
2022/09/19 10:47:27;;;;;;;1.00;1.00;;;16.80;99.90;;;;;;5081296;28;20215;-68
2022/09/19 10:50:01;;;;;;;1.00;1.00;;;16.90;99.90;;;;;;5076293;28;20199;-67
2022/09/19 10:52:33;;;;;;;1.10;1.10;;;17.00;99.90;;;;;;5074725;28;20218;-67
2022/09/19 10:55:09;;;;;;;1.40;1.00;;;17.00;99.90;;;;;;5080119;28;20194;-66
2022/09/19 10:57:44;;;;;;;1.20;1.13;;;17.00;99.90;;;;;;5084940;28;20214;-67
2022/09/19 11:00:22;;;;;;;1.37;1.07;;;17.00;99.90;;;;;;5079666;28;20404;-67
2022/09/19 11:02:59;;;;;;;1.33;1.10;;;16.90;99.90;;;;;;5083035;28;20532;-66
2022/09/19 11:05:29;;;;;;;1.20;1.20;;;16.90;99.90;;;;;;5076778;28;20298;-68
2022/09/19 11:07:59;;;;;;;1.13;1.13;;;16.90;99.90;;;;;;5073686;28;20219;-66
2022/09/19 11:10:37;;;;;;;1.23;1.13;;;16.80;99.90;;;;;;5075382;28;20200;-66
2022/09/19 11:13:11;;;;;;;1.00;0.97;;;16.80;99.90;;;;;;5068445;28;20215;-66
2022/09/19 11:15:56;;;;;;;2.13;1.20;;;16.90;99.90;;;;;;5084828;28;20226;-67
2022/09/19 11:18:32;;;;;;;1.23;1.13;;;16.80;99.90;;;;;;5069588;28;20406;-66
2022/09/19 11:21:08;;;;;;;1.23;1.13;;;16.70;99.90;;;;;;5084975;28;20282;-67
2022/09/19 11:23:57;;;;;;;2.60;1.20;;;16.60;99.90;;;;;;5080966;28;20206;-65
2022/09/19 11:26:35;;;;;;;1.13;1.03;;;16.50;99.90;;;;;;5079346;28;20199;-67
2022/09/19 11:29:18;;;;;;;1.03;1.00;;;16.40;99.90;;;;;;5094954;28;20249;-66
2022/09/19 11:32:03;;;;;;;1.17;1.10;;;16.50;99.90;;;;;;5083651;28;20191;-67
2022/09/19 11:34:39;;;;;;;1.17;1.07;;;16.60;99.90;;;;;;5070603;28;20202;-65
2022/09/19 11:37:19;;;;;;;0.80;0.80;;;16.50;99.90;;;;;;5080057;28;20233;-67
2022/09/19 11:40:01;;;;;;;1.40;1.30;;;16.70;99.90;;;;;;5075153;28;20218;-66
2022/09/19 11:42:38;;;;;;;0.80;0.80;;;16.60;99.90;;;;;;5067022;28;20203;-66
2022/09/19 11:45:12;;;;;;;0.80;0.80;;;16.60;99.90;;;;;;5060185;28;20231;-65
2022/09/19 11:48:01;;;;;;;0.70;0.70;;;16.60;99.90;;;;;;5068827;28;20622;-66
2022/09/19 11:50:39;;;;;;;1.00;1.00;;;16.60;99.90;;;;;;5071546;28;20211;-65
2022/09/19 11:53:30;;;;;;;0.87;0.87;;;16.70;99.90;;;;;;5070992;28;20199;-66
2022/09/19 11:56:10;;;;;;;1.20;1.10;;;16.60;99.90;;;;;;5056673;28;20685;-66
2022/09/19 11:58:48;;;;;;;0.90;0.90;;;16.70;99.90;;;;;;5065765;28;20247;-65
2022/09/19 12:01:31;;;;;;;1.60;1.20;;;16.60;99.90;;;;;;5064773;28;20218;-67
2022/09/19 12:04:14;;;;;;;0.90;0.90;;;16.60;99.90;;;;;;5074167;28;20214;-66
2022/09/19 12:07:10;;;;;;;1.10;1.10;;;16.70;99.90;;;;;;5066350;28;20300;-66
2022/09/19 12:09:44;;;;;;;1.47;1.00;;;16.90;99.90;;;;;;5075095;28;20206;-66
2022/09/19 12:12:15;;;;;;;1.37;1.27;;;17.00;99.90;;;;;;5069183;28;20231;-67
2022/09/19 12:14:46;;;;;;;0.87;0.87;;;17.10;99.90;;;;;;5079591;28;20190;-68
2022/09/19 12:17:17;;;;;;;1.23;1.13;;;17.10;99.90;;;;;;5073919;28;20486;-66
2022/09/19 12:19:48;;;;;;;0.90;0.90;;;17.30;99.90;;;;;;5063725;28;20200;-67
2022/09/19 12:22:19;;;;;;;0.80;0.80;;;17.40;99.90;;;;;;5071884;28;20207;-68
2022/09/19 12:24:55;;;;;;;0.80;0.80;;;17.50;99.90;;;;;;5069762;28;20218;-68
2022/09/19 12:27:30;;;;;;;1.10;1.00;;;17.60;99.90;;;;;;5075143;28;20253;-68
2022/09/19 12:30:05;;;;;;;1.07;0.97;;;17.70;99.90;;;;;;5079360;28;20194;-67
2022/09/19 12:32:38;;;;;;;1.03;1.03;;;17.70;99.90;;;;;;5065977;28;20209;-66
2022/09/19 12:35:14;;;;;;;1.30;1.20;;;17.50;99.90;;;;;;5078131;28;20254;-68
2022/09/19 12:38:02;;;;;;;0.90;0.90;;;17.70;99.90;;;;;;5066753;28;20255;-68
2022/09/19 12:40:43;;;;;;;0.80;0.80;;;17.70;99.90;;;;;;5064513;28;20220;-67
2022/09/19 12:43:17;;;;;;;1.03;1.03;;;17.80;99.90;;;;;;5070396;28;20200;-66
2022/09/19 12:45:53;;;;;;;1.43;1.20;;;17.80;99.90;;;;;;5077874;28;20288;-67
2022/09/19 12:48:29;;;;;;;1.03;1.00;;;17.70;99.90;;;;;;5070755;28;20222;-67
2022/09/19 12:50:58;;;;;;;0.90;0.90;;;17.60;99.90;;;;;;5069068;28;20196;-67
2022/09/19 12:53:33;;;;;;;0.90;0.90;;;17.50;99.90;;;;;;5067596;28;20289;-68
2022/09/19 12:56:06;;;;;;;3.03;1.10;;;17.60;99.90;;;;;;5071353;28;20279;-66
2022/09/19 12:58:40;;;;;;;1.00;1.00;;;17.70;99.90;;;;;;5075647;28;20218;-68
2022/09/19 13:01:22;;;;;;;1.03;0.93;;;17.60;99.90;;;;;;5071933;28;20223;-66
2022/09/19 13:03:56;;;;;;;1.23;1.13;;;17.50;99.90;;;;;;5077042;28;20214;-66
2022/09/19 13:06:30;;;;;;;1.50;1.00;;;17.50;99.90;;;;;;5068100;28;20199;-67
2022/09/19 13:09:03;;;;;;;1.67;1.00;;;17.50;99.90;;;;;;5060686;28;20292;-66
2022/09/19 13:11:36;;;;;;;1.20;1.10;;;17.50;99.90;;;;;;5064389;28;20217;-68
2022/09/19 13:14:13;;;;;;;1.23;1.13;;;17.60;99.90;;;;;;5076307;28;20203;-66
2022/09/19 13:23:30;;;;;;;1.30;1.13;;;17.70;99.90;;;;;;5076481;28;20202;-68
2022/09/19 13:25:07;;;;;;;1.10;1.03;;;17.90;99.90;;;;;;5086668;28;20242;-69
2022/09/19 13:27:36;;;;;;;1.00;0.90;;;17.90;99.90;;;;;;5083556;28;20310;-67
2022/09/19 13:30:03;;;;;;;1.00;0.83;;;17.90;99.90;;;;;;5081651;28;20565;-68
2022/09/19 13:32:52;;;;;;;0.83;0.83;;;17.90;99.90;;;;;;5087863;28;20290;-68
2022/09/19 13:35:22;;;;;;;1.30;1.20;;;17.90;99.90;;;;;;5085056;28;20199;-67